• Join FlightAware (Why Join?)
  • Login
  • US Flag 
11:42PM EDT


 

Airport Tracker/Info


-or-


 

Live Flight TrackerFlight Track Log ✈ DAL3865 ✈ 05-May-2013 ✈ KPIT - KDTW

Flight Track Log - Related Links

Times and Time Zones

All times are in EDT time to prevent confusion due to time zone crossing. See the DAL3865 flight status page for this flight to view local times or setup timezone preferences in your user account.

Time Position Orientation Groundspeed Altitude Reporting Facility
EDT Latitude Longitude Course Direction KTS MPH feet Rate Location/Type
03:34PM 40.5503 -80.2142 282° West 290 334 6,500  Level Cleveland Center
03:35PM 40.5612 -80.6221 285° West  Level FlightAware Approximate
03:35PM 40.5692 -80.3289 282° West 305 351 8,600  Level Cleveland Center
03:36PM 40.5813 -80.7233 285° West  Level FlightAware Approximate
03:36PM 40.5903 -80.4408 284° West 316 364 11,100  Level Cleveland Center
03:37PM 40.6086 -80.8217 291° West  Level FlightAware Approximate
03:37PM 40.6092 -80.5639 281° West 395 455 12,400  Level Cleveland Center
03:38PM 40.6311 -80.9220 285° West  Level FlightAware Approximate
03:38PM 40.6300 -80.6953 282° West 384 442 14,000  Level Cleveland Center
03:39PM 40.6537 -81.0224 282° West  Level FlightAware Approximate
03:39PM 40.6506 -80.8158 283° West 373 429 15,300  Level Cleveland Center
03:41PM 40.6933 -81.1144 281° West 415 478 16,000 180 Climbing Cleveland Center
03:42PM 40.7175 -81.2653 282° West 437 503 16,000  Level Cleveland Center
03:43PM 40.7417 -81.4133 282° West 421 484 16,000  Level Cleveland Center
03:44PM 40.8242 -81.5353 312° West 390 449 16,000  Level Cleveland Center
03:45PM 40.9108 -81.6353 319° Northwest 400 460 16,000  Level Cleveland Center
03:46PM 40.9994 -81.7358 319° Northwest 415 478 16,000  Level Cleveland Center
03:47PM 41.0839 -81.8339 319° Northwest 410 472 16,000  Level Cleveland Center
03:48PM 41.1600 -81.9208 319° Northwest 384 442 16,000  Level Cleveland Center
03:49PM 41.2319 -82.0050 319° Northwest 357 411 16,000  Level Cleveland Center
03:50PM 41.3017 -82.0922 317° Northwest 347 399 16,000  Level Cleveland Center
03:51PM 41.3631 -82.1767 314° West 342 394 16,000  Level Cleveland Center
03:53PM 41.4831 -82.3736 309° West 347 399 16,000 -240 Level Cleveland Center
03:54PM 41.5461 -82.4753 310° West 347 399 15,400 -900 Descending Cleveland Center
03:55PM 41.6089 -82.5828 308° West 347 399 14,300 -1,080 Descending Cleveland Center
03:56PM 41.6575 -82.6647 308° West 340 391 13,300 840 Descending Cleveland Center
03:57PM 41.7119 -82.7583 308° West 334 384 16,000 -720 Climbing Cleveland Center
03:58PM 41.7669 -82.8325 315° West 309 356 11,900 -3,600 Descending Cleveland Center
03:58PM 41.7914 -82.8586 321° Northwest 278 320 11,500 -1,020 Descending Cleveland Center
03:59PM 41.8261 -82.9017 317° Northwest 288 331 10,900 -1,020 Descending Cleveland Center
03:59PM 41.8356 -82.9381 289° West 272 313 10,500 -1,020 Descending Cleveland Center
04:00PM 41.8511 -82.9972 289° West 272 313 9,900 -1,020 Descending Cleveland Center
04:00PM 41.8586 -83.0367 284° West 273 314 9,500 -1,080 Descending Cleveland Center
04:01PM 41.8817 -83.1322 288° West 262 302 8,500 -960 Descending Cleveland Center
04:02PM 41.8908 -83.1828 284° West 266 306 7,900 -1,140 Descending Cleveland Center
04:02PM 41.9044 -83.2253 293° West 249 287 7,400 -1,200 Descending Cleveland Center
04:03PM 41.9136 -83.2786 283° West 255 293 6,700 -1,020 Descending Cleveland Center
04:03PM 41.9211 -83.3125 287° West 234 269 6,400 -720 Descending Cleveland Center
04:04PM 41.9306 -83.3519 288° West 240 276 6,000 -840 Descending Cleveland Center
04:04PM 41.9550 -83.3811 318° Northwest 216 249 5,600 -1,320 Descending Cleveland Center
04:05PM 42.0100 -83.4336 325° Northwest 216 249 4,100 -1,320 Descending Cleveland Center
04:06PM 42.0575 -83.4469 348° North 180 207 3,000 -720 Descending Cleveland Center
04:07PM 42.1019 -83.4239 21° North 166 191 2,800 -600 Descending Cleveland Center
04:08PM 42.1444 -83.3919 29° Northeast 135 155 1,800 -900 Descending Cleveland Center
04:09PM 42.1783 -83.3656 30° Northeast 136 157 1,000 -840 Descending Cleveland Center